KBOK/BOK METAR and TAF weather

Enter ICAO airport designator
Station Type Date Time Source
KBOK METAR 2022/11/30 09:38 UTC NOAA

KBOK 300938Z AUTO 14008G15KT 10SM OVC029 08/02 A2994 RMK AO2 $


Station Type Date Time Source
KBOK Decoded METAR 2022/11/30 09:38 UTC NOAA

Brookings, Brookings Airport, OR, United States (KBOK) 42-04-28N 124-17-24W
Nov 30, 2022 - 04:38 AM EST / 2022.11.30 0938 UTC
Wind: from the SE (140 degrees) at 9 MPH (8 KT) gusting to 17 MPH (15 KT):0
Visibility: 10 mile(s):0
Sky conditions: overcast
Temperature: 46 F (8 C)
Dew Point: 35 F (2 C)
Relative Humidity: 65%
Pressure (altimeter): 29.94 in. Hg (1013 hPa)
ob: KBOK 300938Z AUTO 14008G15KT 10SM OVC029 08/02 A2994 RMK AO2
cycle: 9

Station Type Date Time Source
KBOK TAF UTC NOAA

Error!

Example: see airport list